createdAt,value
2019-05-18T00:01:51.843Z,31.68
2019-05-18T00:04:22.439Z,31.20
2019-05-18T00:06:52.990Z,31.73
2019-05-18T00:09:23.514Z,30.52
2019-05-18T00:11:54.102Z,30.60
2019-05-18T00:14:24.739Z,30.85
2019-05-18T00:16:55.319Z,32.30
2019-05-18T00:19:25.989Z,32.38
2019-05-18T00:21:56.484Z,31.40
2019-05-18T00:24:27.015Z,32.08
2019-05-18T00:26:57.517Z,32.05
2019-05-18T00:29:27.988Z,31.68
2019-05-18T00:31:58.648Z,32.45
2019-05-18T00:34:29.274Z,32.83
2019-05-18T00:36:59.824Z,33.23
2019-05-18T00:39:30.379Z,34.27
2019-05-18T00:42:00.955Z,34.67
2019-05-18T00:44:31.470Z,35.20
2019-05-18T00:47:02.029Z,33.92
2019-05-18T00:49:32.633Z,34.70
2019-05-18T00:52:03.152Z,34.67
2019-05-18T00:54:33.753Z,34.00
2019-05-18T00:57:04.283Z,35.92
2019-05-18T00:59:34.853Z,35.78
2019-05-18T01:02:05.409Z,35.48
2019-05-18T01:04:35.961Z,35.30
2019-05-18T01:07:06.805Z,33.92
2019-05-18T01:09:37.566Z,34.00
2019-05-18T01:12:08.136Z,35.83
2019-05-18T01:14:38.610Z,35.33
2019-05-18T01:17:09.451Z,35.90
2019-05-18T01:19:40.831Z,33.67
2019-05-18T01:22:11.356Z,33.80
2019-05-18T01:24:41.907Z,34.03
2019-05-18T01:27:12.512Z,32.80
2019-05-18T01:29:43.046Z,34.57
2019-05-18T01:32:13.749Z,32.45
2019-05-18T01:34:44.410Z,32.57
2019-05-18T01:37:19.297Z,33.20
2019-05-18T01:39:49.828Z,33.75
2019-05-18T01:42:20.344Z,33.00
2019-05-18T01:44:50.871Z,33.15
2019-05-18T01:47:21.870Z,33.60
2019-05-18T01:49:52.398Z,34.20
2019-05-18T01:52:22.944Z,32.73
2019-05-18T01:54:53.456Z,34.33
2019-05-18T01:57:24.109Z,35.03
2019-05-18T01:59:54.595Z,35.17
2019-05-18T02:02:25.128Z,34.67
2019-05-18T02:04:55.658Z,34.53
2019-05-18T02:07:26.123Z,33.92
2019-05-18T02:09:56.643Z,36.58
2019-05-18T02:12:27.116Z,35.63
2019-05-18T02:14:57.642Z,35.17
2019-05-18T02:17:28.177Z,36.23
2019-05-18T02:19:58.597Z,35.70
2019-05-18T02:22:29.116Z,37.70
2019-05-18T02:24:59.627Z,35.15
2019-05-18T02:27:30.104Z,37.15
2019-05-18T02:30:00.618Z,34.85
2019-05-18T02:32:31.163Z,37.20
2019-05-18T02:35:01.564Z,35.80
2019-05-18T02:37:32.091Z,36.20
2019-05-18T02:40:02.617Z,36.13
2019-05-18T02:42:33.355Z,36.77
2019-05-18T02:45:04.091Z,35.93
2019-05-18T02:47:34.636Z,37.53
2019-05-18T02:50:05.682Z,37.47
2019-05-18T02:52:36.168Z,37.98
2019-05-18T02:55:07.722Z,37.33
2019-05-18T02:57:38.254Z,39.98
2019-05-18T03:00:10.292Z,39.07
2019-05-18T03:02:40.784Z,39.53
2019-05-18T03:05:11.602Z,40.60
2019-05-18T03:07:42.142Z,40.33
2019-05-18T03:10:12.840Z,41.25
2019-05-18T03:12:43.691Z,40.30
2019-05-18T03:15:15.124Z,41.58
2019-05-18T03:17:45.658Z,40.90
2019-05-18T03:20:16.803Z,41.25
2019-05-18T03:22:47.360Z,40.63
2019-05-18T03:25:18.830Z,42.47
2019-05-18T03:27:49.404Z,42.38
2019-05-18T03:30:21.919Z,45.58
2019-05-18T03:32:52.555Z,41.95
2019-05-18T03:35:23.270Z,43.73
2019-05-18T03:37:53.906Z,41.60
2019-05-18T03:40:24.413Z,43.48
2019-05-18T04:09:52.338Z,43.90
2019-05-18T04:12:22.977Z,46.28
2019-05-18T04:14:53.590Z,44.85
2019-05-18T04:17:24.346Z,44.70
2019-05-18T04:19:54.883Z,44.10
2019-05-18T04:22:25.471Z,42.40
2019-05-18T04:24:56.246Z,43.92
2019-05-18T04:27:26.917Z,42.08
2019-05-18T04:29:57.589Z,41.87
2019-05-18T04:32:28.220Z,41.98
2019-05-18T04:34:58.880Z,39.03
2019-05-18T04:37:29.510Z,41.02
2019-05-18T04:40:00.399Z,41.60
2019-05-18T04:42:31.029Z,39.92
2019-05-18T04:45:01.621Z,39.40
2019-05-18T04:47:32.256Z,40.03
2019-05-18T04:50:05.722Z,38.10
2019-05-18T04:52:35.262Z,39.03
2019-05-18T04:55:06.011Z,38.03
2019-05-18T04:57:36.674Z,39.00
2019-05-18T05:00:08.774Z,37.33
2019-05-18T05:02:39.392Z,38.47
2019-05-18T05:05:10.313Z,38.80
2019-05-18T05:07:40.970Z,37.03
2019-05-18T05:10:11.838Z,38.17
2019-05-18T05:12:42.464Z,37.80
2019-05-18T05:15:13.688Z,36.88
2019-05-18T05:17:44.322Z,35.28
2019-05-18T05:20:20.140Z,34.90
2019-05-18T05:22:49.397Z,35.90
2019-05-18T05:25:20.241Z,35.33
2019-05-18T05:27:50.909Z,35.00
2019-05-18T05:30:21.519Z,35.73
2019-05-18T05:32:52.034Z,35.30
2019-05-18T05:35:22.563Z,35.40
2019-05-18T05:37:53.083Z,34.98
2019-05-18T05:40:23.722Z,33.60
2019-05-18T05:42:54.246Z,33.58
2019-05-18T05:45:24.821Z,33.83
2019-05-18T05:47:55.350Z,33.23
2019-05-18T05:50:35.090Z,32.53
2019-05-18T05:52:58.200Z,32.58
2019-05-18T05:55:28.983Z,32.67
2019-05-18T05:57:59.632Z,30.60
2019-05-18T06:00:30.187Z,29.40
2019-05-18T06:03:00.670Z,30.85
2019-05-18T06:05:31.340Z,30.43
2019-05-18T06:08:01.945Z,30.48
2019-05-18T06:10:32.507Z,29.80
2019-05-18T06:13:03.066Z,29.75
2019-05-18T06:15:33.644Z,29.70
2019-05-18T06:18:04.207Z,30.12
2019-05-18T06:20:50.130Z,29.60
2019-05-18T06:23:06.947Z,29.87
2019-05-18T06:25:37.538Z,31.00
2019-05-18T06:28:08.060Z,28.90
2019-05-18T06:30:39.396Z,29.37
2019-05-18T06:33:09.901Z,28.42
2019-05-18T06:35:40.414Z,28.25
2019-05-18T06:38:10.968Z,28.95
2019-05-18T06:40:41.477Z,28.55
2019-05-18T06:43:12.036Z,29.42
2019-05-18T06:45:42.548Z,27.82
2019-05-18T06:48:13.101Z,28.57
2019-05-18T06:50:44.775Z,30.00
2019-05-18T06:53:15.383Z,28.03
2019-05-18T06:55:45.934Z,26.75
2019-05-18T06:58:17.062Z,26.17
2019-05-18T07:00:47.612Z,27.95
2019-05-18T07:03:18.148Z,27.50
2019-05-18T07:05:48.582Z,25.37
2019-05-18T07:08:19.130Z,27.07
2019-05-18T07:10:49.628Z,26.87
2019-05-18T07:13:20.109Z,26.75
2019-05-18T07:15:50.813Z,28.10
2019-05-18T07:18:21.348Z,25.95
2019-05-18T07:20:51.884Z,25.97
2019-05-18T07:23:22.517Z,26.45
2019-05-18T07:25:53.036Z,27.75
2019-05-18T07:28:23.577Z,27.40
2019-05-18T07:30:54.133Z,26.97
2019-05-18T07:33:24.825Z,25.95
2019-05-18T07:35:55.424Z,26.50
2019-05-18T07:38:26.216Z,24.60
2019-05-18T07:40:57.090Z,25.50
2019-05-18T07:43:27.851Z,26.50
2019-05-18T07:46:08.661Z,25.20
2019-05-18T07:48:38.456Z,25.15
2019-05-18T07:51:09.242Z,24.52
2019-05-18T07:53:39.811Z,25.82
2019-05-18T07:56:10.448Z,25.10
2019-05-18T07:58:41.146Z,24.35
2019-05-18T08:01:11.684Z,25.60
2019-05-18T08:03:42.244Z,24.27
2019-05-18T08:06:12.781Z,23.38
2019-05-18T08:08:43.327Z,22.05
2019-05-18T08:11:13.882Z,25.82
2019-05-18T08:13:44.425Z,26.70
2019-05-18T08:16:14.926Z,23.40
2019-05-18T08:18:45.468Z,19.33
2019-05-18T08:21:16.174Z,20.25
2019-05-18T08:23:46.910Z,19.92
2019-05-18T08:26:17.443Z,20.43
2019-05-18T08:28:48.008Z,21.20
2019-05-18T08:31:18.621Z,21.48
2019-05-18T08:33:49.137Z,21.37
2019-05-18T08:36:19.751Z,21.35
2019-05-18T08:38:50.290Z,21.70
2019-05-18T08:41:20.772Z,20.53
2019-05-18T08:43:51.267Z,20.92
2019-05-18T08:46:21.728Z,21.97
2019-05-18T08:48:52.418Z,20.25
2019-05-18T08:51:23.087Z,20.77
2019-05-18T08:53:53.673Z,21.00
2019-05-18T08:56:24.234Z,21.52
2019-05-18T08:58:54.730Z,22.70
2019-05-18T09:01:25.211Z,21.77
2019-05-18T09:03:55.751Z,23.65
2019-05-18T09:06:26.302Z,22.75
2019-05-18T09:08:56.778Z,21.60
2019-05-18T09:11:27.258Z,21.65
2019-05-18T09:13:57.833Z,19.92
2019-05-18T09:16:28.333Z,20.20
2019-05-18T09:18:58.797Z,19.90
2019-05-18T09:21:29.430Z,19.50
2019-05-18T09:24:00.429Z,20.02
2019-05-18T09:26:31.241Z,20.97
2019-05-18T09:29:02.112Z,20.50
2019-05-18T09:31:32.683Z,19.98
2019-05-18T09:34:03.215Z,19.30
2019-05-18T09:36:33.782Z,19.12
2019-05-18T09:39:05.021Z,21.20
2019-05-18T09:56:51.377Z,27.55
2019-05-18T09:59:21.850Z,27.13
2019-05-18T10:01:52.545Z,25.48
2019-05-18T10:04:23.094Z,26.52
2019-05-18T10:06:53.700Z,21.70
2019-05-18T10:09:24.408Z,20.05
2019-05-18T10:11:55.005Z,19.67
2019-05-18T10:14:25.624Z,19.15
2019-05-18T10:16:56.186Z,19.52
2019-05-18T10:19:26.737Z,19.23
2019-05-18T10:21:57.328Z,19.70
2019-05-18T10:24:27.852Z,21.50
2019-05-18T10:26:58.426Z,20.17
2019-05-18T10:29:28.994Z,18.52
2019-05-18T10:31:59.538Z,21.20
2019-05-18T10:34:30.206Z,25.20
2019-05-18T10:37:00.700Z,28.05
2019-05-18T10:39:31.358Z,27.42
2019-05-18T10:42:01.917Z,25.12
2019-05-18T10:44:32.454Z,22.93
2019-05-18T10:47:02.998Z,21.95
2019-05-18T10:49:33.700Z,21.95
2019-05-18T10:52:04.764Z,21.25
2019-05-18T10:54:35.784Z,21.10
2019-05-18T10:57:06.359Z,22.00
2019-05-18T10:59:37.695Z,21.95
2019-05-18T11:02:08.423Z,20.47
2019-05-18T11:04:39.015Z,20.45
2019-05-18T11:07:09.547Z,17.60
2019-05-18T11:09:40.266Z,17.60
2019-05-18T11:12:11.048Z,16.12
2019-05-18T11:14:41.595Z,16.62
2019-05-18T11:17:12.155Z,16.70
2019-05-18T11:19:42.681Z,15.80
2019-05-18T11:22:13.450Z,14.20
2019-05-18T11:24:44.017Z,16.32
2019-05-18T11:27:14.583Z,17.42
2019-05-18T11:29:45.124Z,16.77
2019-05-18T11:32:15.669Z,15.68
2019-05-18T11:34:46.309Z,16.30
2019-05-18T11:37:16.846Z,15.90
2019-05-18T11:39:47.481Z,16.97
2019-05-18T11:42:18.062Z,15.90
2019-05-18T11:44:48.626Z,16.32
2019-05-18T11:47:19.699Z,16.00
2019-05-18T11:49:50.256Z,16.55
2019-05-18T11:52:20.808Z,16.57
2019-05-18T11:54:51.425Z,17.00
2019-05-18T11:57:22.064Z,17.25
2019-05-18T11:59:52.701Z,17.20
2019-05-18T12:02:23.288Z,15.30
2019-05-18T12:04:53.777Z,13.00
2019-05-18T12:07:24.317Z,14.95
2019-05-18T12:09:54.950Z,16.30
2019-05-18T12:12:25.547Z,17.43
2019-05-18T12:14:56.190Z,18.40
2019-05-18T12:17:30.652Z,15.28
2019-05-18T12:20:01.162Z,12.73
2019-05-18T12:22:31.731Z,14.05
2019-05-18T12:25:02.313Z,11.95
2019-05-18T12:27:33.155Z,12.67
2019-05-18T12:30:03.777Z,11.18
2019-05-18T12:32:34.233Z,15.35
2019-05-18T12:35:05.253Z,17.90
2019-05-18T12:37:35.804Z,11.67
2019-05-18T12:40:07.209Z,12.77
2019-05-18T12:42:37.773Z,12.45
2019-05-18T12:45:09.752Z,11.97
2019-05-18T12:47:40.313Z,13.90
2019-05-18T12:50:13.446Z,10.45
2019-05-18T12:52:44.037Z,11.15
2019-05-18T12:55:16.371Z,11.45
2019-05-18T12:57:46.881Z,13.35
2019-05-18T13:00:19.012Z,13.28
2019-05-18T13:02:49.729Z,9.80
2019-05-18T13:05:20.417Z,10.05
2019-05-18T13:07:51.003Z,8.80
2019-05-18T13:10:22.169Z,8.90
2019-05-18T13:12:52.719Z,10.70
2019-05-18T13:15:23.791Z,10.00
2019-05-18T13:17:54.460Z,9.90
2019-05-18T13:20:25.055Z,10.25
2019-05-18T13:22:55.598Z,11.53
2019-05-18T13:25:26.146Z,11.83
2019-05-18T13:27:58.117Z,12.93
2019-05-18T13:30:28.998Z,12.37
2019-05-18T13:32:59.618Z,13.45
2019-05-18T13:35:30.152Z,14.20
2019-05-18T13:38:00.974Z,12.60
2019-05-18T13:40:31.483Z,10.60
2019-05-18T13:43:02.084Z,12.28
2019-05-18T13:45:33.292Z,13.72
2019-05-18T13:48:03.860Z,13.05
2019-05-18T13:50:34.405Z,14.07
2019-05-18T13:53:04.965Z,9.88
2019-05-18T13:55:35.901Z,11.22
2019-05-18T13:58:06.808Z,10.90
2019-05-18T14:00:37.437Z,15.88
2019-05-18T14:03:07.955Z,17.57
2019-05-18T14:05:38.488Z,16.07
2019-05-18T14:08:09.081Z,15.35
2019-05-18T14:10:39.633Z,15.75
2019-05-18T14:13:10.163Z,14.75
2019-05-18T14:15:40.754Z,15.70
2019-05-18T14:18:11.370Z,18.90
2019-05-18T14:20:41.899Z,16.77
2019-05-18T14:23:12.565Z,16.35
2019-05-18T14:25:46.053Z,15.95
2019-05-18T14:28:15.457Z,15.83
2019-05-18T14:30:46.094Z,15.70
2019-05-18T14:33:16.810Z,14.10
2019-05-18T14:35:47.411Z,13.10
2019-05-18T14:38:17.978Z,15.60
2019-05-18T14:40:48.527Z,15.03
2019-05-18T14:43:19.071Z,13.90
2019-05-18T14:45:49.761Z,13.50
2019-05-18T14:48:20.438Z,13.15
2019-05-18T14:50:50.930Z,14.10
2019-05-18T14:53:21.581Z,13.62
2019-05-18T14:55:52.183Z,14.28
2019-05-18T14:58:22.784Z,14.43
2019-05-18T15:00:55.049Z,13.68
2019-05-18T15:03:25.725Z,13.50
2019-05-18T15:05:56.260Z,15.18
2019-05-18T15:08:27.245Z,14.75
2019-05-18T15:10:57.749Z,15.05
2019-05-18T15:13:28.290Z,15.15
2019-05-18T15:15:58.843Z,16.70
2019-05-18T15:18:29.487Z,14.85
2019-05-18T15:20:59.974Z,15.63
2019-05-18T15:23:30.678Z,14.53
2019-05-18T15:26:01.322Z,14.78
2019-05-18T15:28:32.025Z,13.80
2019-05-18T15:31:02.736Z,15.43
2019-05-18T15:33:33.274Z,16.32
2019-05-18T15:36:03.849Z,15.95
2019-05-18T15:38:34.445Z,16.17
2019-05-18T15:41:04.875Z,13.83
2019-05-18T15:43:35.357Z,13.67
2019-05-18T15:46:05.855Z,29.47
2019-05-18T15:48:36.408Z,25.35
2019-05-18T15:51:06.904Z,17.35
2019-05-18T15:53:37.403Z,17.42
2019-05-18T15:56:07.865Z,17.15
2019-05-18T15:58:38.388Z,15.25
2019-05-18T16:01:08.906Z,15.50
2019-05-18T16:03:39.399Z,14.25
2019-05-18T16:06:09.867Z,13.50
2019-05-18T16:08:40.382Z,13.58
2019-05-18T16:11:10.856Z,13.60
2019-05-18T16:13:41.362Z,13.90
2019-05-18T16:16:11.840Z,14.63
2019-05-18T16:18:42.685Z,13.60
2019-05-18T16:21:13.175Z,14.10
2019-05-18T16:23:43.662Z,14.80
2019-05-18T16:26:21.702Z,14.23
2019-05-18T16:28:46.381Z,14.17
2019-05-18T16:31:16.865Z,14.70
2019-05-18T16:33:47.354Z,14.58
2019-05-18T16:36:17.807Z,13.88
2019-05-18T16:38:48.346Z,13.90
2019-05-18T16:41:21.460Z,13.70
2019-05-18T16:43:51.056Z,13.90
2019-05-18T16:46:21.652Z,13.93
2019-05-18T16:48:52.110Z,14.38
2019-05-18T16:51:22.568Z,14.83
2019-05-18T16:53:53.110Z,15.50
2019-05-18T16:56:34.510Z,12.40
2019-05-18T16:58:55.788Z,15.40
2019-05-18T17:01:26.285Z,13.97
2019-05-18T17:03:56.820Z,13.53
2019-05-18T17:06:27.385Z,13.00
2019-05-18T17:08:57.992Z,15.27
2019-05-18T17:11:28.499Z,14.63
2019-05-18T17:13:58.971Z,14.63
2019-05-18T17:16:29.493Z,16.20
2019-05-18T17:18:59.962Z,16.62
2019-05-18T17:21:30.436Z,18.12
2019-05-18T17:24:00.932Z,17.12
2019-05-18T17:26:31.546Z,18.52
2019-05-18T17:29:02.048Z,18.70
2019-05-18T17:31:32.634Z,19.63
2019-05-18T17:34:03.079Z,19.60
2019-05-18T17:36:33.758Z,18.02
2019-05-18T17:39:05.520Z,18.87
2019-05-18T17:41:36.010Z,20.10
2019-05-18T17:44:06.495Z,18.52
2019-05-18T17:46:37.000Z,17.33
2019-05-18T17:49:07.526Z,18.00
2019-05-18T17:51:38.039Z,17.13
2019-05-18T17:54:08.600Z,17.60
2019-05-18T17:56:39.074Z,17.47
2019-05-18T17:59:09.590Z,17.83
2019-05-18T18:01:40.119Z,16.07
2019-05-18T18:04:10.605Z,16.97
2019-05-18T18:06:41.069Z,17.77
2019-05-18T18:09:11.587Z,17.80
2019-05-18T18:11:42.080Z,16.63
2019-05-18T18:14:12.566Z,16.87
2019-05-18T18:16:43.076Z,17.23
2019-05-18T18:19:13.567Z,16.50
2019-05-18T18:21:44.053Z,17.87
2019-05-18T18:24:14.658Z,18.07
2019-05-18T18:26:45.129Z,17.97
2019-05-18T18:29:15.702Z,18.00
2019-05-18T18:31:46.303Z,19.07
2019-05-18T18:34:16.841Z,16.67
2019-05-18T18:36:47.553Z,16.43
2019-05-18T18:39:18.115Z,18.17
2019-05-18T18:41:48.634Z,17.67
2019-05-18T18:44:19.205Z,16.10
2019-05-18T18:46:49.719Z,16.60
2019-05-18T18:49:20.170Z,16.60
2019-05-18T18:51:50.674Z,16.70
2019-05-18T18:54:21.218Z,16.10
2019-05-18T18:56:51.716Z,14.67
2019-05-18T18:59:22.257Z,17.00
2019-05-18T19:01:52.769Z,16.60
2019-05-18T19:04:23.270Z,19.45
2019-05-18T19:06:53.871Z,19.05
2019-05-18T19:09:24.382Z,19.55
2019-05-18T19:11:54.929Z,20.90
2019-05-18T19:14:25.440Z,20.30
2019-05-18T19:16:56.002Z,21.57
2019-05-18T19:19:26.475Z,22.98
2019-05-18T19:21:56.954Z,24.32
2019-05-18T19:24:27.513Z,23.25
2019-05-18T19:26:58.044Z,22.87
2019-05-18T19:29:28.582Z,24.97
2019-05-18T19:31:59.146Z,24.30
2019-05-18T19:34:29.652Z,22.75
2019-05-18T19:37:00.146Z,23.40
2019-05-18T19:39:30.674Z,22.00
2019-05-18T19:42:01.260Z,22.98
2019-05-18T19:44:31.699Z,23.87
2019-05-18T19:47:02.268Z,23.07
2019-05-18T19:49:32.817Z,23.85
2019-05-18T19:52:03.281Z,25.50
2019-05-18T19:54:33.870Z,25.35
2019-05-18T19:57:04.376Z,26.05
2019-05-18T19:59:34.839Z,25.10
2019-05-18T20:02:05.652Z,26.52
2019-05-18T20:04:36.145Z,25.23
2019-05-18T20:07:06.635Z,26.93
2019-05-18T20:09:37.175Z,26.12
2019-05-18T20:12:07.661Z,26.10
2019-05-18T20:14:38.149Z,26.60
2019-05-18T20:17:08.713Z,28.30
2019-05-18T20:19:39.949Z,28.10
2019-05-18T20:22:10.664Z,27.00
2019-05-18T20:24:41.281Z,26.75
2019-05-18T20:27:11.746Z,28.52
2019-05-18T20:29:42.280Z,28.62
2019-05-18T20:32:12.883Z,27.85
2019-05-18T20:34:43.363Z,27.60
2019-05-18T20:37:13.909Z,28.02
2019-05-18T20:39:44.365Z,28.62
2019-05-18T20:42:14.877Z,27.52
2019-05-18T20:44:45.404Z,28.90
2019-05-18T20:47:15.904Z,26.80
2019-05-18T20:49:46.435Z,29.67
2019-05-18T20:52:16.913Z,29.40
2019-05-18T20:54:47.420Z,29.48
2019-05-18T20:57:17.929Z,29.30
2019-05-18T20:59:48.422Z,28.50
2019-05-18T21:02:18.916Z,30.62
2019-05-18T21:04:49.517Z,30.23
2019-05-18T21:07:19.997Z,29.30
2019-05-18T21:09:50.515Z,30.37
2019-05-18T21:12:21.012Z,31.73
2019-05-18T21:14:51.514Z,31.20
2019-05-18T21:17:22.066Z,30.00
2019-05-18T21:19:52.521Z,32.08
2019-05-18T21:22:23.021Z,31.50
2019-05-18T21:24:53.609Z,31.37
2019-05-18T21:27:24.094Z,32.25
2019-05-18T21:29:54.565Z,33.60
2019-05-18T21:32:25.057Z,33.90
2019-05-18T21:34:55.589Z,33.42
2019-05-18T21:37:26.081Z,31.53
2019-05-18T21:39:56.594Z,34.40
2019-05-18T21:42:27.146Z,33.25
2019-05-18T21:44:57.637Z,34.60
2019-05-18T21:47:28.191Z,33.85
2019-05-18T21:49:58.892Z,36.10
2019-05-18T21:52:33.277Z,35.63
2019-05-18T21:55:03.827Z,35.13
2019-05-18T21:57:34.355Z,36.17
2019-05-18T22:00:06.660Z,35.60
2019-05-18T22:02:37.300Z,35.25
2019-05-18T22:05:08.505Z,36.35
2019-05-18T22:07:39.120Z,37.85
2019-05-18T22:10:24.906Z,37.17
2019-05-18T22:12:43.554Z,38.48
2019-05-18T22:15:14.659Z,37.17
2019-05-18T22:18:03.486Z,37.20
2019-05-18T22:20:39.867Z,38.33
2019-05-18T22:23:08.605Z,38.98
2019-05-18T22:25:39.152Z,39.67
2019-05-18T22:28:09.638Z,40.65
2019-05-18T22:30:41.275Z,40.55
2019-05-18T22:33:11.785Z,41.88
2019-05-18T22:35:42.283Z,39.48
2019-05-18T22:38:12.791Z,42.30
2019-05-18T22:40:43.320Z,42.55
2019-05-18T22:43:13.791Z,42.38
2019-05-18T22:45:44.312Z,43.05
2019-05-18T22:48:14.851Z,42.80
2019-05-18T22:50:45.473Z,43.60
2019-05-18T22:53:16.017Z,43.15
2019-05-18T22:55:46.561Z,45.33
2019-05-18T22:58:17.059Z,42.70
2019-05-18T23:00:47.566Z,43.92
2019-05-18T23:03:18.201Z,43.87
2019-05-18T23:05:48.786Z,45.25
2019-05-18T23:08:19.300Z,43.52
2019-05-18T23:10:49.786Z,45.33
2019-05-18T23:13:20.297Z,44.10
2019-05-18T23:15:50.900Z,45.63
2019-05-18T23:18:21.734Z,45.27
2019-05-18T23:20:52.299Z,45.50
2019-05-18T23:23:22.828Z,48.28
2019-05-18T23:25:53.378Z,46.37
2019-05-18T23:28:23.880Z,50.30
2019-05-18T23:30:54.362Z,49.63
2019-05-18T23:33:26.508Z,48.68
2019-05-18T23:35:56.996Z,47.35
2019-05-18T23:38:27.562Z,49.88
2019-05-18T23:40:58.045Z,48.78
2019-05-18T23:43:28.944Z,50.08
2019-05-18T23:45:59.556Z,47.40
2019-05-18T23:48:30.095Z,47.33
2019-05-18T23:51:00.568Z,44.63
2019-05-18T23:53:31.753Z,46.30
2019-05-18T23:56:02.702Z,46.25
2019-05-18T23:58:33.352Z,46.70
